Main page
METAR-TAF:

METAR-TAF

Airports :

Chongqing Jiangbei International Airport

Chongqing, China

latitude: 29-31N, longitude: 106-29E, elevation: 351 m

Current weather observation

The report was made 23 minutes ago, at 20:00 UTC
Wind 2 kt from the South/Southeast
Temperature 27°C
Humidity 79%
Pressure 1004 hPa
Visibility 10 km or more
no clouds below 1500 m and no cumulonimbus

METAR: ZUCK 182000Z 16001MPS CAVOK 27/23 Q1004 NOSIG

Time: 04:23 (20:23 UTC)

Forecast

The report was made 5 hours and 21 minutes ago, at 15:02 UTC
Forecast valid from 18 at 18 UTC to 19 at 18 UTC
Wind 6 kt from the South/Southeast
Visibility: 6000 m
Scattered clouds at a height of 4000 ft

TAF: ZUCK 181502Z 1818/1918 15003MPS 6000 SCT040 TX35/1907Z TN25/1821Z

Weather observations and forecasts of more than 4000 airports (METAR and TAF reports).

The available stations are represented by yellow and red dots on the map.

Hover mouse over dot to see the name of the station.

Then click to see weather observations and forecasts.

To change the map : click on the green buttons with a black cross to zoom in, on the green button with a dash to zoom out, or on the green arrows for adjacent maps.


METAR-TAF: